• Join FlightAware (Why Join?)
  • Login
  • US Flag GB Flag 
06:32 EDT


 

Airport Tracker/Info


-or-


 

Live Flight TrackerFlight Track Log ✈ DAL268 ✈ 17-Apr-2013 ✈ KJFK - LLBG / TLV

Flight Track Log - Related Links

Times and Time Zones

All times are in EDT time to prevent confusion due to time zone crossing. See the DAL268 flight status page for this flight to view local times or setup timezone preferences in your user account.

Time Position Orientation Groundspeed Altitude Reporting Facility
EDT Latitude Longitude Course Direction KTS MPH feet Rate Location/Type
01:42 40.6180 -73.7870 208° Southwest 173 199  Level FlightAware
01:43 40.5970 -73.8040 212° Southwest 180 207 1,000 1,500 Climbing FlightAware
01:43 40.5780 -73.8200 213° Southwest 209 241 1,400 900 Climbing FlightAware
01:43 40.5640 -73.8270 201° Southwest 228 262 1,600 660 Climbing FlightAware
01:44 40.5370 -73.8090 153° Southeast 244 281 1,900 780 Climbing FlightAware
01:44 40.5310 -73.7850 108° East 254 292 2,200 1,380 Climbing FlightAware
01:44 40.5340 -73.7630 80° East 262 302 2,600 1,800 Climbing FlightAware
01:45 40.5413 -73.7266 75° East 271 312 3,300 2,160 Climbing FlightAware ADS-B
01:45 40.5460 -73.7021 76° East 275 316 3,900 2,220 Climbing FlightAware ADS-B
01:45 40.5483 -73.6822 81° East 280 322 4,300 2,160 Climbing FlightAware ADS-B
01:45 40.5492 -73.6650 86° East 283 326 4,700 2,160 Climbing FlightAware ADS-B
01:46 40.5495 -73.6385 89° East 289 333 5,200 1,920 Climbing FlightAware ADS-B
01:46 40.5500 -73.6103 89° East 294 338 5,700 1,860 Climbing FlightAware ADS-B
01:46 40.5504 -73.5819 89° East 300 345 6,200 1,920 Climbing FlightAware ADS-B
01:46 40.5507 -73.5543 89° East 305 351 6,700 1,860 Climbing FlightAware ADS-B
01:47 40.5510 -73.5225 89° East 311 358 7,200 1,860 Climbing FlightAware ADS-B
01:47 40.5514 -73.4926 89° East 315 362 7,700 2,040 Climbing FlightAware ADS-B
01:47 40.5517 -73.4598 89° East 321 369 8,300 1,920 Climbing FlightAware ADS-B
01:48 40.5519 -73.4260 90° East 326 375 8,800 1,680 Climbing FlightAware ADS-B
01:48 40.5523 -73.3957 89° East 331 381 9,200 1,800 Climbing FlightAware ADS-B
01:48 40.5524 -73.3655 90° East 334 384 9,700 1,380 Climbing FlightAware ADS-B
01:49 40.5530 -73.3013 89° East 355 409 10,300 1,080 Climbing FlightAware ADS-B
01:49 40.5533 -73.2762 89° East 365 420 10,500 900 Climbing FlightAware ADS-B
01:49 40.5559 -73.2429 84° East 376 433 10,700 960 Climbing FlightAware ADS-B
01:49 40.5606 -73.2191 75° East 383 441 10,900 840 Climbing FlightAware ADS-B
01:49 40.5714 -73.1844 68° East 392 451 11,100 840 Climbing FlightAware ADS-B
01:50 40.5816 -73.1620 59° Northeast 398 458 11,300 1,380 Climbing FlightAware ADS-B
01:50 40.6162 -73.0999 54° Northeast 414 476 12,100 1,740 Climbing FlightAware ADS-B
01:51 40.6483 -73.0342 57° Northeast 423 487 13,100 2,040 Climbing FlightAware ADS-B
01:51 40.6775 -72.9651 61° Northeast 429 494 14,200 2,160 Climbing FlightAware ADS-B
01:52 40.7067 -72.8953 61° Northeast 435 501 15,300 2,100 Climbing FlightAware ADS-B
01:52 40.7361 -72.8244 61° Northeast 441 507 16,300 1,920 Climbing FlightAware ADS-B
01:53 40.7673 -72.7492 61° Northeast 449 517 17,300 1,800 Climbing FlightAware ADS-B
01:53 40.7977 -72.6758 61° Northeast 458 527 18,200 1,740 Climbing FlightAware ADS-B
01:54 40.8289 -72.6004 61° Northeast 464 534 19,100 1,620 Climbing FlightAware ADS-B
01:54 40.8613 -72.5222 61° Northeast 471 542 19,900 1,500 Climbing FlightAware ADS-B
01:55 40.8944 -72.4414 62° Northeast 478 550 20,700 1,620 Climbing FlightAware ADS-B
01:55 40.9350 -72.3427 61° Northeast 485 558 21,800 1,500 Climbing FlightAware ADS-B
01:56 40.9869 -72.2159 62° Northeast 485 558 22,900 1,260 Climbing FlightAware ADS-B
01:57 41.0406 -72.0843 62° Northeast 497 572 23,900 1,320 Climbing FlightAware ADS-B
01:58 41.0850 -71.9750 62° Northeast 508 585 24,900 780 Climbing FlightAware
01:58 41.1240 -71.8800 61° Northeast 509 586 25,000 1,320 Climbing FlightAware
01:59 41.1730 -71.7560 62° Northeast 514 592 26,800 1,740 Climbing FlightAware
02:00 41.2180 -71.6440 62° Northeast 520 598 27,500 1,020 Climbing FlightAware
02:00 41.2670 -71.5230 62° Northeast 526 605 28,200 1,320 Climbing FlightAware
02:01 41.3340 -71.3530 62° Northeast 521 600 29,700 1,440 Climbing FlightAware
02:02 41.3770 -71.2460 62° Northeast 519 597 30,600 960 Climbing FlightAware
02:03 41.4300 -71.1100 63° Northeast 520 598 31,100 300 Climbing FlightAware
02:04 41.4730 -71.0000 62° Northeast 519 597 31,100  Level FlightAware
02:04 41.5170 -70.8870 62° Northeast 518 596 31,100  Level FlightAware
02:05 41.5680 -70.7580 62° Northeast 515 593 31,100  Level FlightAware
02:06 41.6100 -70.6490 63° Northeast 517 595 31,100  Level FlightAware
02:06 41.6560 -70.5300 63° Northeast 517 595 31,100  Level FlightAware
02:07 41.7100 -70.3900 63° Northeast 517 595 31,100  Level FlightAware
02:08 41.7610 -70.2570 63° Northeast 515 593 31,100  Level FlightAware
02:09 41.8100 -70.1280 63° Northeast 513 590 31,100  Level FlightAware
02:09 41.8580 -70.0020 63° Northeast 513 590 31,100  Level FlightAware
02:10 41.9010 -69.8900 63° Northeast 512 589 31,100  Level FlightAware
02:11 41.9480 -69.7640 63° Northeast 511 588 31,100 -120 Level FlightAware
02:11 41.9930 -69.6440 63° Northeast 512 589 31,000  Descending FlightAware
02:12 42.0360 -69.5300 63° Northeast 511 588 31,100 60 Climbing FlightAware
02:13 42.0810 -69.4080 64° Northeast 510 587 31,100 -60 Level FlightAware
02:14 42.1400 -69.2490 63° Northeast 509 586 31,000 -60 Descending FlightAware
02:15 42.1910 -69.1130 63° Northeast 508 585 31,000 60 Level FlightAware
02:15 42.2320 -68.9990 64° Northeast 509 586 31,100  Climbing FlightAware
02:16 42.2740 -68.8850 64° Northeast 509 586 31,000  Descending FlightAware
02:17 42.3160 -68.7690 64° Northeast 31,100 60 Climbing FlightAware
02:17 42.3620 -68.6410 64° Northeast 509 586 31,100  Level FlightAware
02:18 42.4070 -68.5180 64° Northeast 510 587 31,100 -120 Level FlightAware
02:19 42.4430 -68.4190 64° Northeast 510 587 31,000  Descending FlightAware
02:20 42.5020 -68.2530 64° Northeast 510 587 31,100 60 Climbing FlightAware
02:20 42.5380 -68.1550 63° Northeast 510 587 31,100  Level FlightAware
02:21 42.5730 -68.0570 64° Northeast 510 587 31,100  Level FlightAware
02:22 42.6080 -67.9590 64° Northeast 510 587 31,100  Level FlightAware
02:22 42.6520 -67.8370 64° Northeast 510 587 31,100  Level FlightAware
02:23 42.6870 -67.7390 64° Northeast 510 587 31,100  Level FlightAware
02:24 42.7220 -67.6400 64° Northeast 510 587 31,100  Level FlightAware
02:24 42.7570 -67.5420 64° Northeast 510 587 31,100  Level FlightAware
02:25 42.7920 -67.4440 64° Northeast 510 587 31,100  Level FlightAware
02:26 42.8360 -67.3210 64° Northeast 510 587 31,100  Level FlightAware
02:27 42.8720 -67.2230 63° Northeast 510 587 31,100  Level FlightAware
02:27 42.9070 -67.1240 64° Northeast 510 587 31,100  Level FlightAware
02:28 43.0030 -66.8160 67° East 31,000  Descending FlightAware
02:29 43.0540 -66.6680 65° Northeast 509 586 31,100  Climbing FlightAware
02:29 43.0930 -66.5510 65° Northeast 510 587 31,000 -120 Descending FlightAware
02:30 43.1370 -66.4210 65° Northeast 510 587 31,000 60 Level FlightAware
02:31 43.1770 -66.3000 66° East 510 587 31,100  Climbing FlightAware
02:32 43.2210 -66.1690 65° Northeast 510 587 31,000  Descending FlightAware
02:32 43.2610 -66.0480 66° East 511 588 31,100  Climbing FlightAware
02:33 43.3050 -65.9140 66° East 514 592 31,000  Descending FlightAware
02:34 43.3430 -65.7970 66° East 514 592 31,100 60 Climbing FlightAware
02:34 43.3830 -65.6750 66° East 514 592 31,100 -120 Level FlightAware
02:35 43.4260 -65.5420 66° East 514 592 31,000  Descending FlightAware
02:36 43.4660 -65.4220 65° Northeast 513 590 31,100  Climbing FlightAware
02:36 43.5080 -65.2880 67° East 510 587 31,000  Descending FlightAware
02:37 43.5460 -65.1690 66° East 510 587 31,100 60 Climbing FlightAware
02:38 43.5900 -65.0330 66° East 510 587 31,100 -120 Level FlightAware
02:39 43.6270 -64.9150 67° East 509 586 31,000  Descending FlightAware
02:39 43.6660 -64.7930 66° East 510 587 31,100  Climbing FlightAware
02:40 43.7020 -64.6780 67° East 512 589 31,000 -120 Descending FlightAware
02:41 43.7400 -64.5550 67° East 512 589 31,000 60 Level FlightAware
02:42 43.7950 -64.3800 66° East 512 589 31,100 60 Climbing FlightAware
02:42 43.8260 -64.2770 67° East 512 589 31,100  Level FlightAware
02:43 43.8580 -64.1740 67° East 512 589 31,100  Level FlightAware
02:44 43.8970 -64.0460 67° East 512 589 31,100  Level FlightAware
02:44 43.9290 -63.9430 67° East 512 589 31,100  Level FlightAware
02:45 43.9600 -63.8400 67° East 512 589 31,100  Level FlightAware
02:46 43.9920 -63.7370 67° East 512 589 31,100  Level FlightAware
02:47 44.0310 -63.6080 67° East 512 589 31,100  Level FlightAware
02:47 44.0620 -63.5050 67° East 512 589 31,100  Level FlightAware
02:48 44.0940 -63.4010 67° East 512 589 31,100  Level FlightAware
02:49 44.1250 -63.2980 67° East 512 589 31,100  Level FlightAware
02:49 44.1570 -63.1950 67° East 512 589 31,100  Level FlightAware
02:50 44.1880 -63.0920 67° East 512 589 31,100  Level FlightAware
02:51 44.2270 -62.9620 67° East 512 589 31,100 -120 Level FlightAware
02:52 44.3167 -62.5500 67° East 500 575 31,000 -60 Descending Moncton Center
02:53 44.3667 -62.3667 69° East 510 587 31,000  Level Moncton Center
02:54 44.4333 -62.2000 61° Northeast 500 575 31,000  Level Moncton Center
02:55 44.4833 -62.0000 71° East 500 575 31,000  Level Moncton Center
02:56 44.5167 -61.8167 76° East 500 575 31,000  Level Moncton Center
02:57 44.5833 -61.6333 63° Northeast 500 575 31,000  Level Moncton Center
03:02 44.8810 -60.6000 63° Northeast 505 581 31,000  Level FlightAware
03:03 44.9210 -60.4520 69° East 506 582 31,000 60 Level FlightAware
03:04 44.9560 -60.3150 70° East 503 579 31,100 60 Climbing FlightAware
03:04 44.9860 -60.2030 69° East 502 578 31,100  Level FlightAware
03:05 45.0200 -60.0690 70° East 503 579 31,100  Level FlightAware
03:06 45.0570 -59.9260 70° East 506 582 31,100 -120 Level FlightAware
03:07 45.0900 -59.7990 70° East 508 585 31,000  Descending FlightAware
03:07 45.1210 -59.6750 70° East 511 588 31,100  Climbing FlightAware
03:08 45.1560 -59.5360 70° East 511 588 31,000 -120 Descending FlightAware
03:09 45.1880 -59.4110 70° East 510 587 31,000 60 Level FlightAware
03:09 45.2240 -59.2650 71° East 512 589 31,100 60 Climbing FlightAware
03:10 45.2560 -59.1380 70° East 514 592 31,100 -120 Level FlightAware
03:11 45.2900 -58.9980 71° East 515 593 31,000  Descending FlightAware
03:11 45.3220 -58.8690 71° East 517 595 31,100 60 Climbing FlightAware
03:12 45.3530 -58.7430 71° East 517 595 31,100 -120 Level FlightAware
03:13 45.3890 -58.5920 71° East 515 593 31,000  Descending FlightAware
03:14 45.4200 -58.4680 70° East 516 594 31,100 60 Climbing FlightAware
03:14 45.4540 -58.3240 71° East 519 597 31,100  Level FlightAware
03:15 45.4840 -58.1990 71° East 522 601 31,100 -120 Level FlightAware
03:16 45.5200 -58.0470 71° East 522 601 31,000 -120 Descending FlightAware
03:16 45.5510 -57.9140 72° East 521 600 31,000  Level FlightAware
03:17 45.5800 -57.7940 71° East 521 600 31,000  Level FlightAware
03:18 45.6060 -57.6830 71° East 521 600 31,000  Level FlightAware
03:18 45.6330 -57.5720 71° East 521 600 31,000  Level FlightAware
03:19 45.6660 -57.4330 71° East 521 600 31,000  Level FlightAware
03:20 45.6930 -57.3230 71° East 521 600 31,000  Level FlightAware
03:21 45.7200 -57.2120 71° East 521 600 31,000  Level FlightAware
03:21 45.7460 -57.1010 71° East 521 600 31,000  Level FlightAware
03:22 45.7730 -56.9900 71° East 521 600 31,000 180 Level FlightAware
03:23 45.8300 -56.6740 75° East 534 615 31,300 660 Climbing FlightAware
03:23 45.8610 -56.5240 73° East 539 620 32,000 1,080 Climbing FlightAware
03:24 45.9010 -56.3300 73° East 532 612 33,100 660 Climbing FlightAware
03:25 45.9320 -56.1750 74° East 528 608 33,100  Level FlightAware
03:26 45.9600 -56.0390 73° East 525 604 33,100 -120 Level FlightAware
03:26 45.9860 -55.9080 74° East 524 603 33,000  Descending FlightAware
03:27 46.0090 -55.7930 74° East 521 600 33,100 60 Climbing FlightAware
03:28 46.0390 -55.6390 74° East 521 600 33,100  Level FlightAware
03:29 46.0760 -55.4520 74° East 523 602 33,100  Level FlightAware
03:29 46.0990 -55.3370 74° East 523 602 33,100  Level FlightAware
03:30 46.1220 -55.2230 74° East 523 602 33,100  Level FlightAware
03:31 46.1500 -55.0810 74° East 523 602 33,100  Level FlightAware
03:32 46.1730 -54.9670 74° East 523 602 33,100  Level FlightAware
03:32 46.1950 -54.8520 75° East 523 602 33,100  Level FlightAware
03:33 46.2430 -54.5780 76° East 537 618 33,100  Level FlightAware
03:34 46.2690 -54.4370 75° East 538 619 33,100  Level FlightAware
03:34 46.2990 -54.2750 75° East 538 619 33,100  Level FlightAware
03:35 46.3190 -54.1630 75° East 539 620 33,100  Level FlightAware
03:36 46.3500 -53.9970 75° East 542 624 33,100  Level FlightAware
03:36 46.3750 -53.8580 75° East 542 624 33,100 -120 Level FlightAware
03:37 46.4020 -53.7030 76° East 542 624 33,000 -120 Descending FlightAware
03:38 46.4310 -53.5420 75° East 542 624 33,000 60 Level FlightAware
03:39 46.4560 -53.3990 76° East 543 625 33,100 60 Climbing FlightAware
03:39 46.4810 -53.2580 76° East 543 625 33,100  Level FlightAware
03:40 46.5080 -53.1030 76° East 548 631 33,100 -120 Level FlightAware
03:41 46.5330 -52.9580 76° East 550 633 33,000  Descending FlightAware
03:41 46.5600 -52.7960 76° East 551 634 33,100 60 Climbing FlightAware
03:42 46.5840 -52.6550 76° East 553 636 33,100  Level FlightAware
03:43 46.6180 -52.4550 76° East 557 641 33,100  Level FlightAware
03:44 46.6420 -52.3090 76° East 558 642 33,100 -120 Level FlightAware
03:44 46.6690 -52.1420 77° East 559 643 33,000  Descending FlightAware
03:45 46.6940 -51.9930 76° East 559 643 33,100 60 Climbing FlightAware
03:46 46.7190 -51.8350 77° East 560 644 33,100 -120 Level FlightAware
03:46 46.7430 -51.6890 76° East 560 644 33,000 -120 Descending FlightAware
03:47 46.7680 -51.5310 77° East 560 644 33,000  Level FlightAware
03:48 46.7870 -51.4050 78° East 560 644 33,000  Level FlightAware
03:49 46.6667 -52.5000 78° East 543 625 33,000  Level ETMS Enhanced Traffic Management System
03:49 46.8070 -51.2800 77° East 560 644 33,000  Level FlightAware
03:49 46.8270 -51.1550 77° East 560 644 33,000  Level FlightAware
03:50 46.8470 -51.0290 77° East 560 644 33,000  Level FlightAware
03:51 46.8670 -50.9040 77° East 560 644 33,000  Level FlightAware
03:51 46.8910 -50.7470 77° East 560 644 33,000  Level FlightAware
03:52 46.9110 -50.6210 77° East 560 644 33,000  Level FlightAware
03:53 46.9310 -50.4950 77° East 560 644 33,000  Level FlightAware
03:53 46.9510 -50.3700 77° East 560 644 33,000  Level FlightAware
03:54 46.9710 -50.2440 78° East 560 644 33,000  Level FlightAware
03:55 46.9950 -50.0870 77° East 560 644 33,000  Level FlightAware
03:56 47.0000 -50.0000 70° East 558 642 33,000  Level ETMS Enhanced Traffic Management System
03:56 47.0150 -49.9610 77° East 560 644 33,000  Level FlightAware
03:56 47.0350 -49.8350 77° East 560 644 33,000  Level FlightAware
03:56 47.1000 -49.4500 70° East 570 656 33,000  Level Gander Center
03:57 47.1667 -49.2333 66° East 570 656 33,000  Level Gander Center
03:58 47.2000 -49.0333 76° East 570 656 33,000  Level Gander Center
03:59 47.2333 -48.9500 59° Northeast 570 656 33,000  Level Gander Center
04:00 47.2667 -48.7500 76° East 570 656 33,000  Level Gander Center
04:01 47.3333 -48.5333 66° East 580 667 33,000  Level Gander Center
04:02 47.3833 -48.2833 73° East 580 667 33,000  Level Gander Center
04:03 47.4333 -48.0833 70° East 580 667 33,000  Level Gander Center
04:03 47.4833 -47.9000 68° East 580 667 33,000  Level Gander Center
04:04 47.5333 -47.6833 71° East 590 679 33,000  Level Gander Center
04:05 47.5833 -47.4667 71° East 590 679 33,000  Level Gander Center
04:06 47.6333 -47.2333 72° East 590 679 33,000  Level Gander Center
04:07 47.6333 -47.1667 90° East 590 679 33,000  Level Gander Center
04:09 47.7246 -46.7619 71° East  Level FlightAware Approximate
04:16 48.0326 -45.3342 72° East  Level FlightAware Approximate
04:17 48.0751 -45.1288 73° East  Level FlightAware Approximate
04:18 48.1173 -44.9232 73° East  Level FlightAware Approximate
04:19 48.1591 -44.7172 73° East  Level FlightAware Approximate
04:20 48.2006 -44.5108 73° East  Level FlightAware Approximate
04:21 48.2416 -44.3041 73° East  Level FlightAware Approximate
04:22 48.2823 -44.0971 73° East  Level FlightAware Approximate
04:23 48.3227 -43.8898 74° East  Level FlightAware Approximate
04:24 48.3626 -43.6821 74° East  Level FlightAware Approximate
04:25 48.4022 -43.4742 74° East  Level FlightAware Approximate
04:26 48.4414 -43.2658 74° East  Level FlightAware Approximate
04:27 48.4803 -43.0572 74° East  Level FlightAware Approximate
04:28 48.5187 -42.8483 74° East  Level FlightAware Approximate
04:29 48.5568 -42.6390 75° East  Level FlightAware Approximate
04:30 48.5945 -42.4294 75° East  Level FlightAware Approximate
04:31 48.6318 -42.2195 75° East  Level FlightAware Approximate
04:32 48.6688 -42.0093 75° East  Level FlightAware Approximate
04:33 48.7053 -41.7988 75° East  Level FlightAware Approximate
04:34 48.7415 -41.5880 75° East  Level FlightAware Approximate
04:35 48.7773 -41.3769 76° East  Level FlightAware Approximate
04:36 48.8127 -41.1655 76° East  Level FlightAware Approximate
04:37 48.8477 -40.9538 76° East  Level FlightAware Approximate
04:38 48.8823 -40.7418 76° East  Level FlightAware Approximate
04:39 48.9165 -40.5295 76° East  Level FlightAware Approximate
04:40 48.9504 -40.3169 76° East  Level FlightAware Approximate
04:41 48.9838 -40.1040 76° East  Level FlightAware Approximate
04:42 49.0159 -39.8907 77° East  Level FlightAware Approximate
04:42 49.0000 -40.0000 77° East 525 604 33,000  Level ETMS Enhanced Traffic Management System
04:43 49.0467 -39.6766 78° East  Level FlightAware Approximate
04:44 49.0771 -39.4622 78° East  Level FlightAware Approximate
04:45 49.1071 -39.2476 78° East  Level FlightAware Approximate
04:46 49.1367 -39.0328 78° East  Level FlightAware Approximate
04:47 49.1659 -38.8177 78° East  Level FlightAware Approximate
04:48 49.2962 -37.8157 79° East 525 604 33,000  Level FlightAware Transoceanic
04:49 49.3236 -37.5959 79° East 525 604 33,000  Level FlightAware Transoceanic
04:50 49.3505 -37.3758 79° East 525 604 33,000  Level FlightAware Transoceanic
04:51 49.3770 -37.1555 80° East 525 604 33,000  Level FlightAware Transoceanic
04:52 49.4031 -36.9349 80° East 525 604 33,000  Level FlightAware Transoceanic
04:53 49.4288 -36.7142 80° East 525 604 33,000  Level FlightAware Transoceanic
04:54 49.4540 -36.4931 80° East 525 604 33,000  Level FlightAware Transoceanic
04:55 49.4788 -36.2719 80° East 525 604 33,000  Level FlightAware Transoceanic
04:56 49.5033 -36.0504 80° East 525 604 33,000  Level FlightAware Transoceanic
04:57 49.5272 -35.8288 81° East 525 604 33,000  Level FlightAware Transoceanic
04:58 49.5508 -35.6069 81° East 525 604 33,000  Level FlightAware Transoceanic
04:59 49.5739 -35.3848 81° East 525 604 33,000  Level FlightAware Transoceanic
05:00 49.5966 -35.1624 81° East 525 604 33,000  Level FlightAware Transoceanic
05:01 49.6189 -34.9399 81° East 525 604 33,000  Level FlightAware Transoceanic
05:02 49.6408 -34.7172 81° East 525 604 33,000  Level FlightAware Transoceanic
05:03 49.6622 -34.4943 82° East 525 604 33,000  Level FlightAware Transoceanic
05:04 49.6832 -34.2712 82° East 525 604 33,000  Level FlightAware Transoceanic
05:05 49.7038 -34.0479 82° East 525 604 33,000  Level FlightAware Transoceanic
05:06 49.7239 -33.8244 82° East 525 604 33,000  Level FlightAware Transoceanic
05:07 49.7436 -33.6007 82° East 525 604 33,000  Level FlightAware Transoceanic
05:08 49.7629 -33.3768 82° East 525 604 33,000  Level FlightAware Transoceanic
05:09 49.7818 -33.1528 83° East 525 604 33,000  Level FlightAware Transoceanic
05:10 49.8002 -32.9286 83° East 525 604 33,000  Level FlightAware Transoceanic
05:11 49.8182 -32.7042 83° East 525 604 33,000  Level FlightAware Transoceanic
05:12 49.8357 -32.4797 83° East 525 604 33,000  Level FlightAware Transoceanic
05:13 49.8528 -32.2550 83° East 525 604 33,000  Level FlightAware Transoceanic
05:14 49.8695 -32.0301 84° East 525 604 33,000  Level FlightAware Transoceanic
05:15 49.8858 -31.8051 84° East 525 604 33,000  Level FlightAware Transoceanic
05:16 49.9016 -31.5800 84° East 525 604 33,000  Level FlightAware Transoceanic
05:17 49.9169 -31.3547 84° East 525 604 33,000  Level FlightAware Transoceanic
05:18 49.9319 -31.1292 84° East 525 604 33,000  Level FlightAware Transoceanic
05:19 49.9464 -30.9036 84° East 525 604 33,000  Level FlightAware Transoceanic
05:20 49.9604 -30.6779 85° East 525 604 33,000  Level FlightAware Transoceanic
05:21 49.9741 -30.4521 85° East 525 604 33,000  Level FlightAware Transoceanic
05:22 49.9873 -30.2261 85° East 525 604 33,000  Level FlightAware Transoceanic
05:23 49.9998 -30.0034 85° East  Level FlightAware Approximate
05:24 50.0119 -29.7806 85° East  Level FlightAware Approximate
05:24 50.0000 -30.0000 86° East 525 604 33,000  Level ETMS Enhanced Traffic Management System
05:25 50.0091 -29.7838 86° East  Level FlightAware Approximate
05:26 50.0177 -29.5701 86° East  Level FlightAware Approximate
05:27 50.0259 -29.3563 86° East  Level FlightAware Approximate
05:28 50.0337 -29.1425 87° East  Level FlightAware Approximate
05:29 50.0412 -28.9286 87° East  Level FlightAware Approximate
05:30 50.0639 -28.1847 88° East 525 604 33,000  Level FlightAware Transoceanic
05:31 50.0700 -27.9574 88° East 525 604 33,000  Level FlightAware Transoceanic
05:32 50.0755 -27.7301 88° East 525 604 33,000  Level FlightAware Transoceanic
05:33 50.0806 -27.5028 88° East 525 604 33,000  Level FlightAware Transoceanic
05:34 50.0853 -27.2754 88° East 525 604 33,000  Level FlightAware Transoceanic
05:35 50.0895 -27.0480 88° East 525 604 33,000  Level FlightAware Transoceanic
05:36 50.0933 -26.8205 89° East 525 604 33,000  Level FlightAware Transoceanic
05:37 50.0966 -26.5931 89° East 525 604 33,000  Level FlightAware Transoceanic
05:38 50.0995 -26.3655 89° East 525 604 33,000  Level FlightAware Transoceanic
05:39 50.1020 -26.1380 89° East 525 604 33,000  Level FlightAware Transoceanic
05:40 50.1040 -25.9104 89° East 525 604 33,000  Level FlightAware Transoceanic
05:41 50.1055 -25.6828 89° East 525 604 33,000  Level FlightAware Transoceanic
05:42 50.1066 -25.4552 90° East 525 604 33,000  Level FlightAware Transoceanic
05:43 50.1073 -25.2276 90° East 525 604 33,000  Level FlightAware Transoceanic
05:44 50.1075 -25.0000 90° East 525 604 33,000  Level FlightAware Transoceanic
05:45 50.1073 -24.7724 90° East 525 604 33,000  Level FlightAware Transoceanic
05:46 50.1066 -24.5448 90° East 525 604 33,000  Level FlightAware Transoceanic
05:47 50.1055 -24.3172 91° East 525 604 33,000  Level FlightAware Transoceanic
05:48 50.1040 -24.0896 91° East 525 604 33,000  Level FlightAware Transoceanic
05:49 50.1020 -23.8620 91° East 525 604 33,000  Level FlightAware Transoceanic
05:50 50.0995 -23.6345 91° East 525 604 33,000  Level FlightAware Transoceanic
05:51 50.0966 -23.4069 91° East 525 604 33,000  Level FlightAware Transoceanic
05:52 50.0933 -23.1795 91° East 525 604 33,000  Level FlightAware Transoceanic
05:53 50.0895 -22.9520 92° East 525 604 33,000  Level FlightAware Transoceanic
05:54 50.0853 -22.7246 92° East 525 604 33,000  Level FlightAware Transoceanic
05:55 50.0806 -22.4972 92° East 525 604 33,000  Level FlightAware Transoceanic
05:56 50.0755 -22.2699 92° East 525 604 33,000  Level FlightAware Transoceanic
05:57 50.0700 -22.0426 92° East 525 604 33,000  Level FlightAware Transoceanic
05:58 50.0639 -21.8153 92° East 525 604 33,000  Level FlightAware Transoceanic
05:59 50.0575 -21.5882 93° East 525 604 33,000  Level FlightAware Transoceanic
06:00 50.0506 -21.3611 93° East 525 604 33,000  Level FlightAware Transoceanic
06:01 50.0433 -21.1340 93° East 525 604 33,000  Level FlightAware Transoceanic
06:02 50.0355 -20.9071 93° East 525 604 33,000  Level FlightAware Transoceanic
06:03 50.0273 -20.6802 93° East 525 604 33,000  Level FlightAware Transoceanic
06:04 50.0186 -20.4534 93° East 525 604 33,000  Level FlightAware Transoceanic
06:05 50.0095 -20.2266 94° East 525 604 33,000 -60 Level FlightAware Transoceanic
06:06 50.0006 -20.0130 94° East  Level FlightAware Approximate
06:07 49.9912 -19.7995 94° East  Level FlightAware Approximate
06:08 49.9939 -19.8123 93° East  Level FlightAware Approximate
06:09 49.9866 -19.5986 93° East  Level FlightAware Approximate
06:10 49.9789 -19.3853 93° East  Level FlightAware Approximate
06:11 49.9709 -19.1721 93° East  Level FlightAware Approximate
06:12 49.9624 -18.9590 93° East  Level FlightAware Approximate
06:13 49.9536 -18.7459 94° East  Level FlightAware Approximate
06:14 49.9443 -18.5329 94° East  Level FlightAware Approximate
06:15 49.9347 -18.3200 94° East  Level FlightAware Approximate
06:16 49.9247 -18.1072 94° East  Level FlightAware Approximate
06:17 49.9143 -17.8945 94° East  Level FlightAware Approximate
06:18 49.9035 -17.6819 94° East  Level FlightAware Approximate
06:19 49.8923 -17.4693 95° East  Level FlightAware Approximate
06:20 49.8807 -17.2569 95° East  Level FlightAware Approximate
06:21 49.8683 -17.0365 95° East  Level FlightAware Approximate
06:22 49.8554 -16.8162 95° East  Level FlightAware Approximate
06:23 49.8422 -16.5961 95° East  Level FlightAware Approximate
06:24 49.8285 -16.3760 95° East  Level FlightAware Approximate
06:25 49.8144 -16.1561 96° East  Level FlightAware Approximate
06:26 49.7999 -15.9363 96° East  Level FlightAware Approximate
06:27 49.7850 -15.7167 96° East  Level FlightAware Approximate
06:28 49.7696 -15.4972 96° East  Level FlightAware Approximate
06:29 49.7539 -15.2778 96° East  Level FlightAware Approximate
06:30 49.7377 -15.0586 96° East  Level FlightAware Approximate
06:31 49.7209 -14.8395 97° East  Level FlightAware Approximate
06:32 49.7036 -14.6207 97° East  Level FlightAware Approximate
06:33 49.6859 -14.4019 97° East  Level FlightAware Approximate
06:34 49.6677 -14.1834 97° East  Level FlightAware Approximate
06:35 49.6499 -13.9730 97° East  Level FlightAware Approximate
06:36 49.6316 -13.7628 98° East  Level FlightAware Approximate
06:37 49.6130 -13.5527 98° East  Level FlightAware Approximate
06:38 49.5940 -13.3428 98° East  Level FlightAware Approximate
06:39 49.5746 -13.1330 98° East  Level FlightAware Approximate
06:40 49.5548 -12.9235 98° East  Level FlightAware Approximate
06:41 49.5347 -12.7141 98° East  Level FlightAware Approximate
06:42 49.5152 -12.5046 98° East  Level FlightAware Approximate
06:43 49.4953 -12.2953 98° East  Level FlightAware Approximate
06:44 49.4751 -12.0862 98° East  Level FlightAware Approximate
06:45 49.4545 -11.8772 99° East  Level FlightAware Approximate
06:46 49.4335 -11.6684 99° East  Level FlightAware Approximate
06:47 49.4122 -11.4598 99° East  Level FlightAware Approximate
06:48 49.3904 -11.2514 99° East  Level FlightAware Approximate
06:49 49.3684 -11.0432 99° East  Level FlightAware Approximate
06:50 49.3459 -10.8351 99° East  Level FlightAware Approximate
06:51 49.3230 -10.6273 99° East  Level FlightAware Approximate
06:52 49.2998 -10.4196 100° East  Level FlightAware Approximate
06:53 49.2762 -10.2121 100° East  Level FlightAware Approximate
06:54 49.2523 -10.0049 100° East  Level FlightAware Approximate
06:55 49.2279 -9.7978 100° East  Level FlightAware Approximate
06:56 49.2032 -9.5910 100° East  Level FlightAware Approximate
06:57 49.1782 -9.3843 100° East  Level FlightAware Approximate
06:57 49.2317 -8.9864 100° East 480 552 31,500  Level FlightAware UK
06:57 49.2213 -8.9207 104° East 480 552 31,500  Level FlightAware UK
06:57 49.2104 -8.8553 104° East 478 550 31,500  Level FlightAware UK
06:57 49.1996 -8.7899 104° East 478 550 31,500  Level FlightAware UK
06:58 49.1887 -8.7244 104° East 476 548 31,500  Level FlightAware UK
06:58 49.1779 -8.6591 104° East 478 550 31,500  Level FlightAware UK
06:58 49.1671 -8.5937 104° East 478 550 31,500  Level FlightAware UK
06:59 49.1560 -8.5284 104° East 480 552 31,500 3,840 Level FlightAware UK
06:59 49.1690 -8.5340 104° East 532 612 33,100  Climbing FlightAware
06:59 49.1412 -8.4411 104° East 482 555 31,500 -2,760 Descending FlightAware UK
06:59 49.1300 -8.3757 105° East 482 555 31,500 2,700 Level FlightAware UK
07:00 49.1360 -8.3430 105° East 531 611 33,000  Climbing FlightAware
07:00 49.1113 -8.2669 105° East 482 555 31,500 -2,760 Descending FlightAware UK
07:00 49.0961 -8.2042 110° East 480 552 31,500 3,840 Level FlightAware UK
07:00 49.1080 -8.2100 110° East 519 597 33,100  Climbing FlightAware
07:01 49.0719 -8.1253 110° East 478 550 31,500 -2,760 Descending FlightAware UK
07:01 49.0544 -8.0655 114° Southeast 474 545 31,500 3,420 Level FlightAware UK
07:01 49.0630 -8.0580 114° Southeast 518 596 33,100  Climbing FlightAware
07:01 49.0255 -7.9644 114° Southeast 476 548 31,500  Descending FlightAware UK
07:02 49.0210 -7.9150 114° Southeast 517 595 33,100  Climbing FlightAware
07:02 48.9898 -7.8451 114° Southeast 478 550 31,500 -2,880 Descending FlightAware UK
07:02 48.9710 -7.7862 116° Southeast 478 550 31,500 3,720 Level FlightAware UK
07:02 48.9800 -7.7840 116° Southeast 519 597 33,000  Climbing FlightAware
07:03 48.9460 -7.7073 116° Southeast 476 548 31,500 -2,520 Descending FlightAware UK
07:03 48.9276 -7.6481 115° Southeast 474 545 31,500 3,540 Level FlightAware UK
07:03 48.9360 -7.6390 115° Southeast 519 597 33,100  Climbing FlightAware
07:03 48.9031 -7.5689 115° Southeast 474 545 31,500  Descending FlightAware UK
07:04 48.8950 -7.5080 115° Southeast 522 601 33,100  Climbing FlightAware
07:04 48.8603 -7.4299 115° Southeast 476 548 31,500 -2,760 Descending FlightAware UK
07:04 48.8419 -7.3702 115° Southeast 478 550 31,500 4,140 Level FlightAware UK
07:04 48.8570 -7.3850 115° Southeast 521 600 33,100  Climbing FlightAware
07:05 48.8174 -7.2904 115° Southeast 478 550 31,500 -2,640 Descending FlightAware UK
07:05 48.7990 -7.2305 115° Southeast 478 550 31,500 2,340 Level FlightAware UK
07:05 48.7950 -7.1820 115° Southeast 525 604 33,100  Climbing FlightAware
07:06 48.7556 -7.0908 115° Southeast 482 555 31,500 -2,640 Descending FlightAware UK
07:06 48.7368 -7.0310 115° Southeast 482 555 31,500 4,560 Level FlightAware UK
07:06 48.7540 -7.0500 115° Southeast 525 604 33,100  Climbing FlightAware
07:06 48.7180 -6.9711 115° Southeast 480 552 31,500  Descending FlightAware UK
07:07 48.7070 -6.9010 115° Southeast 525 604 33,100  Climbing FlightAware
07:07 48.6737 -6.8313 115° Southeast 480 552 31,500  Descending FlightAware UK
07:07 48.6710 -6.7900 116° Southeast 525 604 33,100  Climbing FlightAware
07:07 48.6486 -6.7518 116° Southeast 482 555 31,500 -5,100 Descending FlightAware UK
07:08 48.6297 -6.6923 116° Southeast 480 552 31,500  Level FlightAware UK
07:08 48.6106 -6.6330 116° Southeast 482 555 31,500 4,560 Level FlightAware UK
07:08 48.6280 -6.6520 116° Southeast 524 603 33,100  Climbing FlightAware
07:08 48.5916 -6.5738 116° Southeast 480 552 31,500 -2,940 Descending FlightAware UK
07:09 48.5725 -6.5147 116° Southeast 480 552 31,500 2,520 Level FlightAware UK
07:09 48.5740 -6.4860 116° Southeast 521 600 33,000  Climbing FlightAware
07:09 48.5346 -6.3968 116° Southeast 478 550 31,500  Descending FlightAware UK
07:10 48.5330 -6.3590 116° Southeast 521 600 33,000  Climbing FlightAware
07:10 48.4968 -6.2793 116° Southeast 478 550 31,500 -2,760 Descending FlightAware UK
07:10 48.4778 -6.2207 116° Southeast 476 548 31,500 3,840 Level FlightAware UK
07:10 48.4900 -6.2250 116° Southeast 521 600 33,100  Climbing FlightAware
07:11 48.4523 -6.1428 116° Southeast 478 550 31,500 -2,760 Descending FlightAware UK
07:11 48.4332 -6.0843 116° Southeast 478 550 31,500 3,180 Level FlightAware UK
07:11 48.4400 -6.0720 116° Southeast 521 600 33,000  Climbing FlightAware
07:11 48.4013 -5.9869 116° Southeast 476 548 31,500 -2,400 Descending FlightAware UK
07:12 48.3822 -5.9284 116° Southeast 476 548 31,500 4,800 Level FlightAware UK
07:12 48.3990 -5.9460 116° Southeast 521 600 33,100  Climbing FlightAware
07:12 48.3566 -5.8504 116° Southeast 478 550 31,500 -2,400 Descending FlightAware UK
07:12 48.3372 -5.7913 116° Southeast 480 552 31,500 4,980 Level FlightAware UK
07:12 48.3550 -5.8140 116° Southeast 522 601 33,000  Climbing FlightAware
07:13 48.3178 -5.7331 116° Southeast 476 548 31,500 -2,520 Descending FlightAware UK
07:13 48.2984 -5.6748 117° Southeast 474 545 31,500 3,540 Level FlightAware UK
07:13 48.3070 -5.6680 117° Southeast 522 601 33,100  Climbing FlightAware
07:13 48.2725 -5.5971 117° Southeast 474 545 31,500 -2,940 Descending FlightAware UK
07:14 48.2531 -5.5389 117° Southeast 474 545 31,500 3,000 Level FlightAware UK
07:14 48.2590 -5.5240 117° Southeast 523 602 33,000  Climbing FlightAware
07:14 48.2140 -5.4224 117° Southeast 474 545 31,500 120 Descending FlightAware UK
07:14 48.2150 -5.3950 117° Southeast 525 604 33,100 1,740 Climbing FlightAware
07:15 48.1800 -5.2860 116° Southeast 526 605 33,000  Descending FlightAware
07:16 48.1280 -5.1350 117° Southeast 528 608 33,100 60 Climbing FlightAware
07:17 48.0780 -4.9870 117° Southeast 528 608 33,100  Level FlightAware
07:17 48.0280 -4.8410 117° Southeast 527 606 33,100 60 Level FlightAware
07:18 47.9890 -4.7300 118° Southeast 532 612 33,200 780 Climbing FlightAware
07:19 47.9370 -4.5800 117° Southeast 535 616 34,200 1,200 Climbing FlightAware
07:19 47.8870 -4.4350 117° Southeast 534 615 35,000 600 Climbing FlightAware
07:20 47.8390 -4.2980 118° Southeast 532 612 35,100 60 Climbing FlightAware
07:21 47.7970 -4.1750 117° Southeast 531 611 35,100  Level FlightAware
07:22 47.7140 -3.9430 118° Southeast 525 604 35,100  Level FlightAware
07:23 47.6620 -3.7980 118° Southeast 525 604 35,100  Level FlightAware
07:23 47.6160 -3.6720 118° Southeast 525 604 35,100  Level FlightAware
07:24 47.5710 -3.5460 118° Southeast 524 603 35,100  Level FlightAware
07:25 47.5200 -3.4040 118° Southeast 525 604 35,100  Level FlightAware
07:25 47.4740 -3.2790 119° Southeast 526 605 35,100  Level FlightAware
07:26 47.4220 -3.1360 118° Southeast 527 606 35,100  Level FlightAware
07:27 47.3750 -3.0080 118° Southeast 526 605 35,100  Level FlightAware
07:28 47.3400 -2.8550 109° East 549 632 35,100  Level FlightAware
07:28 47.3210 -2.7070 101° East 549 632 35,100  Level FlightAware
07:29 47.2990 -2.5380 101° East 549 632 35,100  Level FlightAware
07:30 47.2790 -2.3920 101° East 549 632 35,100  Level FlightAware
07:30 47.2590 -2.2430 101° East 548 631 35,100  Level FlightAware
07:31 47.2370 -2.0870 102° East 546 628 35,100  Level FlightAware
07:32 47.2190 -1.9550 101° East 545 627 35,100  Level FlightAware
07:32 47.1950 -1.7940 102° East 543 625 35,100  Level FlightAware
07:33 47.1710 -1.6290 102° East 542 624 35,100  Level FlightAware
07:34 47.1500 -1.4860 102° East 541 623 35,100  Level FlightAware
07:35 47.1260 -1.3290 103° East 541 623 35,100  Level FlightAware
07:35 47.1050 -1.1880 102° East 539 620 35,100  Level FlightAware
07:36 47.0790 -1.0230 103° East 537 618 35,100  Level FlightAware
07:37 47.0570 -0.8800 103° East 536 617 35,100  Level FlightAware
07:37 47.0340 -0.7400 104° East 536 617 35,100  Level FlightAware
07:38 47.0150 -0.6180 103° East 536 617 35,100  Level FlightAware
07:39 46.9920 -0.4760 103° East 536 617 35,100  Level FlightAware
07:39 46.9750 -0.3710 103° East 537 618 35,100  Level FlightAware
07:40 46.9350 -0.1200 103° East 535 616 35,100  Level FlightAware
07:41 46.9060 0.0540 104° East 537 618 35,100  Level FlightAware
07:42 46.8830 0.1940 103° East 535 616 35,100  Level FlightAware
07:42 46.8560 0.3520 104° East 534 615 35,100  Level FlightAware
07:43 46.8300 0.4890 105° East 527 606 35,100  Level FlightAware
07:44 46.7860 0.6400 113° Southeast 518 596 35,100  Level FlightAware
07:45 46.7430 0.7640 117° Southeast 518 596 35,100  Level FlightAware
07:45 46.7000 0.8880 117° Southeast 516 594 35,100  Level FlightAware
07:46 46.6570 1.0130 117° Southeast 516 594 35,100  Level FlightAware
07:47 46.6150 1.1380 116° Southeast 516 594 35,100  Level FlightAware
07:47 46.5690 1.2660 118° Southeast 517 595 35,100  Level FlightAware
07:48 46.5310 1.3730 117° Southeast 513 590 35,100  Level FlightAware
07:49 46.4830 1.5130 116° Southeast 513 590 35,100  Level FlightAware
07:49 46.4350 1.6480 117° Southeast 513 590 35,100  Level FlightAware
07:50 46.3810 1.7940 118° Southeast 514 592 35,100  Level FlightAware
07:51 46.3390 1.9120 117° Southeast 515 593 35,100  Level FlightAware
07:52 46.2870 2.0560 118° Southeast 516 594 35,100  Level FlightAware
07:52 46.2520 2.1530 118° Southeast 517 595 35,100  Level FlightAware
07:53 46.1940 2.3130 118° Southeast 517 595 35,100  Level FlightAware
07:54 46.1500 2.4330 118° Southeast 518 596 35,100  Level FlightAware
07:54 46.0990 2.5710 118° Southeast 518 596 35,100  Level FlightAware
07:55 46.0610 2.6740 118° Southeast 516 594 35,100  Level FlightAware
07:56 45.9570 2.9100 122° Southeast 505 581 35,100  Level FlightAware
07:57 45.8850 3.0420 128° Southeast 501 577 35,100  Level FlightAware
07:58 45.8300 3.1430 128° Southeast 500 575 35,100  Level FlightAware
07:58 45.7730 3.2460 128° Southeast 498 573 35,100  Level FlightAware
07:59 45.7100 3.3610 128° Southeast 499 574 35,100  Level FlightAware
08:00 45.6430 3.4810 129° Southeast 499 574 35,100  Level FlightAware
08:01 45.5900 3.5770 128° Southeast 499 574 35,100  Level FlightAware
08:01 45.5240 3.6980 128° Southeast 496 571 35,100  Level FlightAware
08:02 45.4320 3.8600 129° Southeast 500 575 35,100  Level FlightAware
08:03 45.3750 3.9610 129° Southeast 503 579 35,100 -120 Level FlightAware
08:04 45.3090 4.0750 129° Southeast 503 579 35,000  Descending FlightAware
08:04 45.2510 4.1770 129° Southeast 501 577 35,100 60 Climbing FlightAware
08:05 45.1830 4.2940 129° Southeast 500 575 35,100  Level FlightAware
08:06 45.1240 4.3960 129° Southeast 501 577 35,100  Level FlightAware
08:07 45.0650 4.4970 130° Southeast 501 577 35,100  Level FlightAware
08:07 45.0000 4.6090 129° Southeast 502 578 35,100  Level FlightAware
08:08 44.9400 4.7110 130° Southeast 502 578 35,100  Level FlightAware
08:09 44.8780 4.8150 130° Southeast 502 578 35,100  Level FlightAware
08:09 44.8150 4.9230 129° Southeast 502 578 35,100  Level FlightAware
08:10 44.7560 5.0220 130° Southeast 502 578 35,100 -120 Level FlightAware
08:11 44.6870 5.1380 130° Southeast 504 580 35,000  Descending FlightAware
08:11 44.6270 5.2390 130° Southeast 505 581 35,100 60 Climbing FlightAware
08:12 44.5740 5.3430 126° Southeast 508 585 35,100 600 Level FlightAware
08:13 44.5190 5.4520 125° Southeast 507 583 36,000 1,080 Climbing FlightAware
08:14 44.4600 5.5680 125° Southeast 508 585 36,700 720 Climbing FlightAware
08:14 44.4000 5.6830 126° Southeast 505 581 37,100 300 Climbing FlightAware
08:15 44.3540 5.7720 126° Southeast 504 580 37,100  Level FlightAware
08:16 44.2930 5.8920 125° Southeast 504 580 37,100  Level FlightAware
08:16 44.2280 6.0180 126° Southeast 502 578 37,100  Level FlightAware
08:17 44.1780 6.1160 125° Southeast 501 577 37,100  Level FlightAware
08:18 44.1190 6.2300 126° Southeast 500 575 37,100  Level FlightAware
08:20 44.0063 6.5333 117° Southeast  Level FlightAware Approximate
08:21 43.9428 6.7029 117° Southeast  Level FlightAware Approximate
08:21 43.8630 6.7180 117° Southeast 506 582 37,100  Level FlightAware
08:21 43.8070 6.8240 126° Southeast 507 583 37,100  Level FlightAware
08:22 43.7450 6.9390 127° Southeast 508 585 37,100  Level FlightAware
08:23 43.6850 7.0390 130° Southeast 508 585 37,100  Level FlightAware
08:24 43.6210 7.1500 129° Southeast 509 586 37,100  Level FlightAware
08:24 43.5680 7.2660 122° Southeast 510 587 37,100  Level FlightAware
08:25 43.5210 7.3770 120° Southeast 510 587 37,100  Level FlightAware
08:26 43.4680 7.5030 120° Southeast 511 588 37,100  Level FlightAware
08:26 43.4210 7.6110 121° Southeast 510 587 37,100  Level FlightAware
08:27 43.3650 7.7400 121° Southeast 510 587 37,100  Level FlightAware
08:28 43.3220 7.8380 121° Southeast 510 587 37,100  Level FlightAware
08:28 43.2670 7.9630 121° Southeast 510 587 37,100  Level FlightAware
08:29 43.2120 8.0890 121° Southeast 511 588 37,100  Level FlightAware
08:30 43.1630 8.1990 121° Southeast 508 585 37,100  Level FlightAware
08:31 43.1070 8.3260 121° Southeast 506 582 37,100  Level FlightAware
08:31 43.0610 8.4300 121° Southeast 506 582 37,100  Level FlightAware
08:32 43.0140 8.5360 121° Southeast 501 577 37,100  Level FlightAware
08:33 42.9730 8.6270 122° Southeast 505 581 37,100  Level FlightAware
08:33 42.9340 8.7140 121° Southeast 504 580 37,100  Level FlightAware
08:34 42.8860 8.8210 121° Southeast 499 574 37,100  Level FlightAware
08:34 42.8380 8.9290 121° Southeast 500 575 37,100  Level FlightAware
08:35 42.7820 9.0520 122° Southeast 497 572 37,100  Level FlightAware
08:36 42.7270 9.1720 122° Southeast 497 572 37,100  Level FlightAware
08:36 42.6840 9.2640 122° Southeast 496 571 37,100  Level FlightAware
08:37 42.6200 9.4040 122° Southeast 500 575 37,100  Level FlightAware
08:38 42.5780 9.5130 118° Southeast 497 572 37,100  Level FlightAware
08:39 42.5420 9.6450 110° East 495 570 37,100  Level FlightAware
08:39 42.5120 9.7560 110° East 495 570 37,100  Level FlightAware
08:40 42.4800 9.8780 110° East 494 568 37,100  Level FlightAware
08:41 42.4440 10.0120 110° East 494 568 37,100  Level FlightAware
08:41 42.4140 10.1240 110° East 495 570 37,100  Level FlightAware
08:42 42.3770 10.2570 111° Southeast 494 568 37,100  Level FlightAware
08:43 42.3460 10.3690 110° East 493 567 37,100  Level FlightAware
08:44 42.3130 10.4900 110° East 491 565 37,100  Level FlightAware
08:44 42.2800 10.6100 110° East 490 564 37,100  Level FlightAware
08:45 42.2460 10.7320 111° Southeast 490 564 37,100  Level FlightAware
08:46 42.2160 10.8400 111° Southeast 490 564 37,100  Level FlightAware
08:46 42.1800 10.9680 111° Southeast 491 565 37,100  Level FlightAware
08:47 42.1300 11.0730 123° Southeast 500 575 37,100  Level FlightAware
08:48 42.0640 11.1800 130° Southeast 493 567 37,100  Level FlightAware
08:48 42.0080 11.2770 128° Southeast 497 572 37,100  Level FlightAware
08:49 41.9250 11.4110 130° Southeast 498 573 37,100  Level FlightAware
08:50 41.8580 11.5150 131° Southeast 498 573 37,100  Level FlightAware
08:51 41.7980 11.6090 131° Southeast 499 574 37,100  Level FlightAware
08:52 41.7300 11.7150 131° Southeast 500 575 37,100  Level FlightAware
08:52 41.6690 11.8100 131° Southeast 500 575 37,100  Level FlightAware
08:53 41.6090 11.9030 131° Southeast 501 577 37,100  Level FlightAware
08:54 41.5410 12.0090 131° Southeast 497 572 37,100  Level FlightAware
08:54 41.4990 12.0740 131° Southeast 497 572 37,100  Level FlightAware
08:55 41.4240 12.1900 131° Southeast 498 573 37,100  Level FlightAware
08:56 41.3570 12.2930 131° Southeast 498 573 37,100  Level FlightAware
08:56 41.2910 12.3950 131° Southeast 500 575 37,100  Level FlightAware
08:57 41.2310 12.4860 131° Southeast 507 583 37,100  Level FlightAware
08:58 41.1480 12.6120 131° Southeast 508 585 37,100  Level FlightAware
08:59 41.0820 12.7120 131° Southeast 510 587 37,100  Level FlightAware
08:59 41.0260 12.7970 131° Southeast 510 587 37,100  Level FlightAware
09:00 40.9740 12.8770 131° Southeast 510 587 37,100  Level FlightAware
09:01 40.9210 12.9570 131° Southeast 510 587 37,100  Level FlightAware
09:02 40.8550 13.0570 131° Southeast 510 587 37,100  Level FlightAware
09:02 40.7930 13.2480 113° Southeast 498 573 37,100  Level FlightAware
09:03 40.7390 13.3730 120° Southeast 498 573 37,100  Level FlightAware
09:04 40.6920 13.4780 121° Southeast 498 573 37,100  Level FlightAware
09:04 40.6460 13.5820 120° Southeast 497 572 37,100  Level FlightAware
09:05 40.5940 13.6990 120° Southeast 497 572 37,100  Level FlightAware
09:06 40.5490 13.8000 120° Southeast 496 571 37,100  Level FlightAware
09:06 40.4950 13.9220 120° Southeast 497 572 37,100  Level FlightAware
09:07 40.4480 14.0250 121° Southeast 496 571 37,100  Level FlightAware
09:08 40.4010 14.1300 120° Southeast 495 570 37,100  Level FlightAware
09:09 40.3500 14.2440 120° Southeast 495 570 37,100  Level FlightAware
09:09 40.3030 14.3460 121° Southeast 496 571 37,100  Level FlightAware
09:10 40.2570 14.4480 121° Southeast 496 571 37,100  Level FlightAware
09:11 40.2020 14.5680 121° Southeast 498 573 37,100  Level FlightAware
09:11 40.1550 14.6720 121° Southeast 497 572 37,100  Level FlightAware
09:12 40.1020 14.7860 121° Southeast 498 573 37,100  Level FlightAware
09:13 40.0560 14.8880 120° Southeast 499 574 37,100  Level FlightAware
09:13 40.0080 14.9910 121° Southeast 497 572 37,100  Level FlightAware
09:14 39.9530 15.1100 121° Southeast 495 570 37,100  Level FlightAware
09:15 39.9060 15.2090 122° Southeast 492 566 37,100  Level FlightAware
09:15 39.8590 15.3100 121° Southeast 489 563 37,100  Level FlightAware
09:16 39.8070 15.4220 121° Southeast 489 563 37,100  Level FlightAware
09:17 39.7610 15.5200 121° Southeast 489 563 37,100  Level FlightAware
09:18 39.7060 15.6360 122° Southeast 488 562 37,100  Level FlightAware
09:18 39.6590 15.7370 121° Southeast 489 563 37,100  Level FlightAware
09:19 39.6070 15.8450 122° Southeast 492 566 37,100  Level FlightAware
09:20 39.5580 15.9490 121° Southeast 494 568 37,100  Level FlightAware
09:20 39.5100 16.0480 122° Southeast 495 570 37,100 -120 Level FlightAware
09:21 39.4660 16.1660 116° Southeast 476 548 37,000  Descending FlightAware
09:22 39.4400 16.2600 110° East 477 549 37,100 60 Climbing FlightAware
09:23 39.4000 16.3910 112° Southeast 480 552 37,100  Level FlightAware
09:23 39.3640 16.5020 113° Southeast 482 555 37,100  Level FlightAware
09:24 39.3250 16.6190 113° Southeast 485 558 37,100  Level FlightAware
09:25 39.2900 16.7250 113° Southeast 487 560 37,100  Level FlightAware
09:25 39.2550 16.8320 113° Southeast 488 562 37,100  Level FlightAware
09:26 39.2170 16.9480 113° Southeast 490 564 37,100  Level FlightAware
09:27 39.1840 17.0460 113° Southeast 490 564 37,100  Level FlightAware
09:28 39.1450 17.1630 113° Southeast 491 565 37,100  Level FlightAware
09:28 39.1020 17.2960 113° Southeast 491 565 37,100  Level FlightAware
09:29 39.0680 17.4030 112° Southeast 490 564 37,100  Level FlightAware
09:30 39.0310 17.5170 113° Southeast 490 564 37,100  Level FlightAware
09:30 38.9950 17.6260 113° Southeast 492 566 37,100  Level FlightAware
09:31 38.9660 17.7160 112° Southeast 492 566 37,100  Level FlightAware
09:32 38.9230 17.8480 113° Southeast 492 566 37,100  Level FlightAware
09:32 38.8910 17.9440 113° Southeast 492 566 37,100  Level FlightAware
09:33 38.8500 18.0660 113° Southeast 493 567 37,100  Level FlightAware
09:34 38.8240 18.1460 113° Southeast 494 568 37,100  Level FlightAware
09:35 38.7650 18.3220 113° Southeast 495 570 37,100  Level FlightAware
09:35 38.7300 18.4250 114° Southeast 495 570 37,100  Level FlightAware
09:36 38.6870 18.5520 113° Southeast 496 571 37,100  Level FlightAware
09:37 38.6500 18.6630 113° Southeast 496 571 37,100  Level FlightAware
09:38 38.6130 18.7710 114° Southeast 497 572 37,100 -120 Level FlightAware
09:38 38.5690 18.9000 114° Southeast 498 573 37,000  Descending FlightAware
09:40 38.4940 19.1560 110° East 491 565 37,100  Climbing FlightAware
09:41 38.4490 19.3260 109° East 493 567 37,100  Level FlightAware
09:42 38.4180 19.4410 109° East 493 567 37,100  Level FlightAware
09:42 38.3900 19.5450 109° East 494 568 37,100  Level FlightAware
09:43 38.3600 19.6600 108° East 492 566 37,100  Level FlightAware
09:44 38.3310 19.7670 109° East 492 566 37,100  Level FlightAware
09:44 38.2940 19.9030 109° East 493 567 37,100  Level FlightAware
09:45 38.2550 20.0490 109° East 490 564 37,100  Level FlightAware
09:46 38.2220 20.1700 109° East 490 564 37,100  Level FlightAware
09:46 38.1920 20.2790 109° East 491 565 37,100  Level FlightAware
09:47 38.1620 20.3870 109° East 492 566 37,100  Level FlightAware
09:48 38.1280 20.5030 110° East 494 568 37,100  Level FlightAware
09:49 38.0890 20.6140 114° Southeast 498 573 37,100  Level FlightAware
09:49 38.0450 20.7300 116° Southeast 497 572 37,100  Level FlightAware
09:50 38.0060 20.8350 115° Southeast 496 571 37,100  Level FlightAware
09:51 37.9620 20.9490 116° Southeast 496 571 37,100  Level FlightAware
09:51 37.9200 21.0590 116° Southeast 496 571 37,100  Level FlightAware
09:52 37.8810 21.1620 116° Southeast 498 573 37,100  Level FlightAware
09:53 37.8390 21.2690 116° Southeast 499 574 37,100  Level FlightAware
09:53 37.7930 21.3900 116° Southeast 503 579 37,100  Level FlightAware
09:54 37.7480 21.5060 116° Southeast 504 580 37,100  Level FlightAware
09:55 37.7070 21.6110 116° Southeast 507 583 37,100  Level FlightAware
09:56 37.6640 21.7210 116° Southeast 512 589 37,100  Level FlightAware
09:56 37.6160 21.8440 116° Southeast 515 593 37,100  Level FlightAware
09:57 37.5730 21.9510 117° Southeast 508 585 37,100  Level FlightAware
09:58 37.5270 22.0680 116° Southeast 505 581 37,100  Level FlightAware
09:58 37.4860 22.1710 117° Southeast 505 581 37,100  Level FlightAware
09:59 37.4430 22.2790 117° Southeast 505 581 37,100  Level FlightAware
10:00 37.4060 22.3840 114° Southeast 505 581 37,100  Level FlightAware
10:00 37.3690 22.5070 111° Southeast 505 581 37,100  Level FlightAware
10:01 37.3360 22.6190 110° East 505 581 37,100  Level FlightAware
10:02 37.3000 22.7430 110° East 507 583 37,100  Level FlightAware
10:03 37.2670 22.8550 110° East 510 587 37,100  Level FlightAware
10:03 37.2300 22.9790 111° Southeast 510 587 37,100  Level FlightAware
10:04 37.1970 23.0870 111° Southeast 509 586 37,100  Level FlightAware
10:05 37.1640 23.1980 110° East 505 581 37,100  Level FlightAware
10:05 37.1260 23.3240 111° Southeast 501 577 37,100  Level FlightAware
10:06 37.0930 23.4320 111° Southeast 500 575 37,100  Level FlightAware
10:07 37.0570 23.5510 111° Southeast 497 572 37,100  Level FlightAware
10:07 37.0240 23.6580 111° Southeast 496 571 37,100  Level FlightAware
10:08 36.9910 23.7640 111° Southeast 495 570 37,100  Level FlightAware
10:09 36.9580 23.8730 111° Southeast 497 572 37,100  Level FlightAware
10:10 36.9200 23.9950 111° Southeast 498 573 37,100  Level FlightAware
10:10 36.8870 24.1030 111° Southeast 499 574 37,100  Level FlightAware
10:11 36.8500 24.2210 111° Southeast 501 577 37,100  Level FlightAware
10:12 36.8160 24.3280 112° Southeast 501 577 37,100  Level FlightAware
10:12 36.7820 24.4380 111° Southeast 502 578 37,100  Level FlightAware
10:13 36.7430 24.5590 112° Southeast 503 579 37,100  Level FlightAware
10:14 36.7030 24.6660 115° Southeast 505 581 37,100  Level FlightAware
10:14 36.6600 24.7810 115° Southeast 505 581 37,100  Level FlightAware
10:15 36.6210 24.8850 115° Southeast 506 582 37,100 -120 Level FlightAware
10:16 36.5810 24.9940 115° Southeast 506 582 37,000  Descending FlightAware
10:17 36.5400 25.1060 114° Southeast 506 582 37,100 60 Climbing FlightAware
10:17 36.5070 25.1960 114° Southeast 506 582 37,100  Level FlightAware
10:18 36.4490 25.3540 114° Southeast 506 582 37,100  Level FlightAware
10:19 36.4160 25.4450 114° Southeast 506 582 37,100  Level FlightAware
10:20 36.3460 25.6260 116° Southeast 508 585 37,100  Level FlightAware
10:20 36.3060 25.7320 115° Southeast 510 587 37,100  Level FlightAware
10:21 36.2540 25.8700 115° Southeast 510 587 37,100  Level FlightAware
10:22 36.2200 25.9600 115° Southeast 510 587 37,100  Level FlightAware
10:23 36.1860 26.0500 115° Southeast 510 587 37,100  Level FlightAware
10:24 36.1430 26.1630 115° Southeast 510 587 37,100  Level FlightAware
10:24 36.0710 26.3480 116° Southeast 513 590 37,100  Level FlightAware
10:25 36.0290 26.4610 115° Southeast 513 590 37,100  Level FlightAware
10:26 35.9950 26.5520 115° Southeast 513 590 37,100  Level FlightAware
10:27 35.9600 26.6420 116° Southeast 513 590 37,100  Level FlightAware
10:27 35.8980 26.7960 116° Southeast 513 590 37,100  Level FlightAware
10:28 35.8510 26.9140 116° Southeast 512 589 37,100  Level FlightAware
10:29 35.8120 27.0130 116° Southeast 512 589 37,100  Level FlightAware
10:29 35.7710 27.1210 115° Southeast 512 589 37,100  Level FlightAware
10:30 35.7290 27.2330 115° Southeast 512 589 37,100  Level FlightAware
10:31 35.6950 27.3230 115° Southeast 512 589 37,100  Level FlightAware
10:31 35.6610 27.4130 115° Southeast 512 589 37,100  Level FlightAware
10:32 35.6270 27.5030 115° Southeast 512 589 37,100  Level FlightAware
10:33 35.5930 27.5920 115° Southeast 512 589 37,100  Level FlightAware
10:33 35.5590 27.6820 115° Southeast 512 589 37,100  Level FlightAware
10:34 35.5160 27.7940 115° Southeast 512 589 37,100  Level FlightAware
10:35 35.4000 28.0450 119° Southeast 515 593 37,100  Level FlightAware
10:36 35.3570 28.1500 117° Southeast 515 593 37,100  Level FlightAware
10:36 35.3110 28.2640 116° Southeast 515 593 37,100  Level FlightAware
10:37 35.2690 28.3680 116° Southeast 516 594 37,100  Level FlightAware
10:38 35.2260 28.4720 117° Southeast 516 594 37,100  Level FlightAware
10:39 35.1770 28.5920 117° Southeast 516 594 37,100  Level FlightAware
10:39 35.1370 28.6890 117° Southeast 513 590 37,100  Level FlightAware
10:40 35.0980 28.7840 117° Southeast 515 593 37,100  Level FlightAware
10:41 35.0450 28.9100 117° Southeast 516 594 37,100  Level FlightAware
10:41 35.0000 29.0190 117° Southeast 516 594 37,100  Level FlightAware
10:42 34.9500 29.1380 117° Southeast 520 598 37,100  Level FlightAware
10:43 34.9160 29.2190 117° Southeast 517 595 37,100  Level FlightAware
10:43 34.8740 29.3240 116° Southeast 517 595 37,100  Level FlightAware
10:44 34.8090 29.4770 117° Southeast 515 593 37,100  Level FlightAware
10:46 34.7230 29.6770 118° Southeast 513 590 37,100  Level FlightAware
10:46 34.6790 29.7810 117° Southeast 512 589 37,100  Level FlightAware
10:47 34.6350 29.8740 120° Southeast 514 592 37,100  Level FlightAware
10:48 34.5860 29.9760 120° Southeast 514 592 37,100  Level FlightAware
10:48 34.5460 30.0610 120° Southeast 514 592 37,100  Level FlightAware
10:49 34.4860 30.1860 120° Southeast 516 594 37,100  Level FlightAware
10:50 34.4300 30.3050 120° Southeast 519 597 37,100  Level FlightAware
10:50 34.3800 30.4100 120° Southeast 520 598 37,100  Level FlightAware
10:51 34.3270 30.5220 120° Southeast 521 600 37,100  Level FlightAware
10:52 34.2790 30.6230 120° Southeast 523 602 37,100  Level FlightAware
10:53 34.2250 30.7350 120° Southeast 525 604 37,100  Level FlightAware
10:53 34.1750 30.8400 120° Southeast 522 601 37,100  Level FlightAware
10:54 34.1240 30.9450 120° Southeast 522 601 37,100  Level FlightAware
10:55 34.0710 31.0560 120° Southeast 523 602 37,100  Level FlightAware
10:55 34.0210 31.1590 120° Southeast 523 602 37,100  Level FlightAware
10:56 33.9630 31.2760 121° Southeast 524 603 37,100  Level FlightAware
10:57 33.9140 31.3790 120° Southeast 524 603 37,100  Level FlightAware
10:57 33.8580 31.4930 121° Southeast 525 604 37,100  Level FlightAware
10:58 33.8100 31.5910 120° Southeast 524 603 37,100  Level FlightAware
10:59 33.7580 31.6970 121° Southeast 525 604 37,100  Level FlightAware
11:00 33.7030 31.8070 121° Southeast 524 603 37,100  Level FlightAware
11:00 33.6550 31.9060 120° Southeast 524 603 37,100  Level FlightAware
11:01 33.6000 32.0160 121° Southeast 524 603 37,100  Level FlightAware
11:02 33.5450 32.1260 121° Southeast 525 604 37,100 -60 Level FlightAware
11:03 33.4120 32.3920 122° Southeast 531 611 37,000 -420 Descending FlightAware
11:04 33.4075 32.3885 122° Southeast  Level FlightAware Approximate
11:04 33.3610 32.4940 121° Southeast 529 609 36,100  Level FlightAware
11:05 33.3070 32.6010 121° Southeast 512 589 34,800 -1,980 Descending FlightAware
11:06 33.2390 32.7350 121° Southeast 500 575 32,800 -1,620 Descending FlightAware
11:06 33.1950 32.8230 121° Southeast 497 572 32,300 -1,620 Descending FlightAware
11:07 33.1430 32.9250 121° Southeast 483 556 30,700 -2,880 Descending FlightAware
11:08 33.0960 33.0160 122° Southeast 464 534 28,500 -2,700 Descending FlightAware
11:09 33.0410 33.1240 121° Southeast 451 519 26,700 -2,160 Descending FlightAware
11:09 32.9960 33.2110 122° Southeast 439 505 25,300 -2,040 Descending FlightAware
11:10 32.9620 33.2780 121° Southeast 426 490 24,200 -2,100 Descending FlightAware
11:11 32.9160 33.3680 121° Southeast 417 480 22,500 -2,100 Descending FlightAware
11:11 32.8760 33.4450 122° Southeast 404 465 21,300 -1,920 Descending FlightAware
11:12 32.8260 33.5410 122° Southeast 390 449 19,700 -2,040 Descending FlightAware
11:13 32.7890 33.6120 122° Southeast 382 440 18,300 -1,980 Descending FlightAware
11:13 32.7530 33.6810 122° Southeast 373 429 17,100 -1,740 Descending FlightAware
11:14 32.7140 33.7560 122° Southeast 358 412 15,900 -1,560 Descending FlightAware
11:15 32.6790 33.8230 122° Southeast 366 421 14,900 -1,500 Descending FlightAware
11:16 32.6350 33.9070 122° Southeast 378 435 13,800 -1,380 Descending FlightAware
11:16 32.6070 33.9610 122° Southeast 375 432 13,100 -1,080 Descending FlightAware
11:17 32.5670 34.0360 122° Southeast 361 415 12,500 -1,140 Descending FlightAware
11:18 32.5240 34.1170 122° Southeast 338 389 11,400 -1,500 Descending FlightAware
11:18 32.4890 34.1760 125° Southeast 326 375 10,300 -1,680 Descending FlightAware
11:19 32.4590 34.2120 135° Southeast 320 368 9,500 -1,680 Descending FlightAware
11:19 32.4300 34.2460 135° Southeast 311 358 8,800 -1,560 Descending FlightAware
11:20 32.4010 34.2800 135° Southeast 304 350 8,100 -1,560 Descending FlightAware
11:20 32.3750 34.3100 136° Southeast 299 344 7,400 -900 Descending FlightAware
11:21 32.3500 34.3410 134° Southeast 299 344 7,300 -240 Descending FlightAware
11:23 32.1827 34.5579 123° Southeast  Level FlightAware Approximate
11:24 32.1070 34.6907 132° Southeast  Level FlightAware Approximate
11:25 32.0261 34.8233 125° Southeast  Level FlightAware Approximate
11:26 32.0000 34.8667 125° Southeast  Level FlightAware Approximate
11:27 32.0095 34.8769 125° Southeast  Level Estimated
11:28 32.0095 34.8769 125° Southeast  Level Estimated
11:29 32.0095 34.8769 125° Southeast  Level Estimated
11:30 32.0095 34.8769 125° Southeast  Level Estimated
11:31 32.0095 34.8769 125° Southeast  Level Estimated
11:32 32.0095 34.8769 125° Southeast  Level Estimated
11:33 32.0095 34.8769 125° Southeast  Level Estimated